Latest Weather Observations for Marree Airport

IDS60801

Issued at 12:01 pm CDT Friday 20 October 2017 (issued every 30 minutes, with the page automatically refreshed every 10 minutes)

About weather observations | Map of weather stations | Latest weather observations for SA | Other Formats
Station Details ID: 017126 Name: MARREE AERO Lat: -29.66 Lon: 138.07 Height: 50.0 m
Data from the previous 72 hours. | See also: Recent months at Marree Airport
Date/Time
CDT
Temp
°C
App
Temp
°C
Dew
Point
°C
Rel
Hum
%
Delta-T
°C
Wind Press
QNH
hPa
Press
MSL
hPa
Rain since
9am
mm
Dir  Spd
km/h
Gust
km/h
Spd
kts
Gust
kts
20/12:00pm 24.0 17.5 2.8 25 10.2 SSE 26 39 14 21 1025.8 1025.7 0.0
20/11:30am 24.2 17.5 3.5 26 10.1 SSE 28 37 15 20 1026.1 1026.0 0.0
20/11:00am 22.2 15.7 4.7 32 8.6 SSE 28 37 15 20 1026.4 1026.3 0.0
20/10:30am 21.6 14.4 5.1 34 8.1 SSE 32 43 17 23 1026.3 1026.2 0.0
20/10:00am 20.6 13.6 6.2 39 7.2 SE 32 39 17 21 1026.2 1026.1 0.0
20/09:30am 19.2 11.4 6.7 44 6.2 SSE 37 44 20 24 1026.1 1026.0 0.0
20/09:00am 18.7 11.5 7.5 48 5.7 SSE 35 43 19 23 1025.9 1025.8 0.0
20/08:30am 18.1 10.9 7.5 50 5.3 SSE 35 44 19 24 1025.5 1025.4 0.0
20/08:00am 17.3 11.0 7.4 52 5.0 SSE 30 41 16 22 1025.5 1025.4 0.0
20/07:30am 16.2 9.5 7.2 55 4.5 SSE 32 43 17 23 1025.1 1025.0 0.0
20/07:00am 15.5 8.7 7.0 57 4.2 S 32 39 17 21 1024.6 1024.5 0.0
20/06:30am 15.6 9.7 7.4 58 4.1 S 28 32 15 17 1024.3 1024.2 0.0
20/06:00am 15.8 9.5 7.6 58 4.1 S 30 37 16 20 1023.9 1023.8 0.0
20/05:30am 16.5 10.3 7.7 56 4.4 NNE 30 35 16 19 1023.7 1023.6 0.0
20/05:00am 16.5 9.9 7.7 56 4.4 SSE 32 39 17 21 1023.3 1023.2 0.0
20/04:30am 16.9 10.3 7.8 55 4.6 S 32 41 17 22 1023.2 1023.1 0.0
20/04:00am 17.3 11.4 7.6 53 4.9 NE 28 35 15 19 1022.8 1022.6 0.0
20/03:30am 17.9 11.1 7.0 49 5.4 SE 32 39 17 21 1022.8 1022.6 0.0
20/03:00am 18.6 11.9 7.4 48 5.7 SSE 32 43 17 23 1022.7 1022.5 0.0
20/02:30am 19.3 12.5 7.1 45 6.2 SE 32 44 17 24 1022.9 1022.7 0.0
20/02:23am 19.6 12.9 7.4 45 6.2 SE 32 44 17 24 1022.7 1022.5 0.0
20/02:21am 19.6 13.3 7.4 45 6.2 SE 30 43 16 23 1022.7 1022.5 0.0
20/02:00am 20.0 13.2 7.7 45 6.3 SSE 33 44 18 24 1022.4 1022.2 0.0
20/01:30am 20.4 13.9 8.1 45 6.4 SSE 32 41 17 22 1022.1 1021.9 0.0
20/01:00am 20.5 14.0 8.8 47 6.2 NNE 33 44 18 24 1022.0 1021.8 0.0
20/12:30am 20.6 14.5 11.8 57 4.9 N 35 43 19 23 1022.1 1021.9 0.0
20/12:00am 20.5 15.3 13.5 64 4.0 N 33 44 18 24 1022.0 1021.8 0.0
 
Date/Time
CDT
Temp
°C
App
Temp
°C
Dew
Point
°C
Rel
Hum
%
Delta-T
°C
Wind Press
QNH
hPa
Press
MSL
hPa
Rain since
9am
mm
Dir  Spd
km/h
Gust
km/h
Spd
kts
Gust
kts
19/11:30pm 20.9 15.9 13.4 62 4.3 N 32 44 17 24 1021.8 1021.6 0.0
19/11:00pm 21.6 16.2 12.7 57 5.1 N 33 43 18 23 1021.5 1021.3 0.0
19/10:36pm 21.8 15.7 12.9 57 5.1 WNW 37 44 20 24 1021.2 1021.0 0.0
19/10:35pm 21.8 15.7 12.9 57 5.1 WNW 37 44 20 24 1021.2 1021.0 0.0
19/10:32pm 21.9 15.8 13.0 57 5.1 NW 37 44 20 24 1021.1 1020.9 0.0
19/10:30pm 21.9 16.2 13.0 57 5.1 NNW 35 44 19 24 1021.0 1020.8 0.0
19/10:29pm 22.0 16.3 13.1 57 5.1 N 35 44 19 24 1021.0 1020.8 0.0
19/10:16pm 21.9 15.8 13.0 57 5.1 SSW 37 44 20 24 1020.9 1020.7 0.0
19/10:00pm 22.3 16.1 12.8 55 5.4 SSW 37 48 20 26 1020.9 1020.7 0.0
19/09:57pm 22.6 16.4 12.8 54 5.6 SSW 37 48 20 26 1020.9 1020.7 0.0
19/09:30pm 24.5 18.7 11.5 44 7.3 N 33 43 18 23 1020.4 1020.2 0.0
19/09:02pm 24.9 18.7 11.5 43 7.6 ESE 35 46 19 25 1019.7 1019.5 0.0
19/09:00pm 24.9 18.7 11.5 43 7.6 SE 35 46 19 25 1019.8 1019.6 0.0
19/08:53pm 24.9 18.0 11.5 43 7.6 SSE 39 48 21 26 1019.6 1019.4 0.0
19/08:30pm 25.1 17.8 11.6 42 7.7 S 41 54 22 29 1019.5 1019.3 0.0
19/08:00pm 25.8 17.1 11.2 40 8.3 S 48 59 26 32 1019.2 1019.0 0.0
19/07:30pm 26.9 18.6 11.4 38 8.8 S 46 57 25 31 1018.7 1018.5 0.0
19/07:00pm 27.7 18.6 11.3 36 9.4 S 50 65 27 35 1018.1 1017.9 0.0
19/06:33pm 28.8 18.8 10.9 33 10.2 S 54 72 29 39 1017.7 1017.5 0.0
19/06:30pm 28.7 18.1 10.8 33 10.2 S 57 72 31 39 1017.6 1017.4 0.0
19/06:00pm 30.0 19.6 11.5 32 10.7 S 57 70 31 38 1016.9 1016.7 0.0
19/05:30pm 31.8 22.6 12.1 30 11.6 S 52 63 28 34 1016.5 1016.3 0.0
19/05:00pm 32.5 24.3 14.1 32 11.2 S 50 63 27 34 1016.3 1016.1 0.0
19/04:39pm 33.3 25.8 13.9 31 11.8 S 46 69 25 37 1015.9 1015.7 0.0
19/04:30pm 34.3 27.3 13.7 29 12.6 SSW 43 56 23 30 1015.9 1015.7 0.0
19/04:00pm 33.7 27.3 14.2 30 12.0 SSW 41 54 22 29 1016.0 1015.8 0.0
19/03:54pm 34.2 28.1 14.1 29 12.3 SSW 39 54 21 29 1016.0 1015.8 0.0
19/03:52pm 34.7 29.2 14.6 30 12.5 SSW 37 54 20 29 1016.0 1015.8 0.0
19/03:43pm 34.6 29.0 14.5 30 12.4 SE 37 50 20 27 1016.0 1015.8 0.0
19/03:40pm 34.9 29.2 14.2 28 12.8 E 37 50 20 27 1016.1 1015.9 0.0
19/03:38pm 34.1 28.8 14.1 30 12.3 SSE 35 50 19 27 1016.0 1015.8 0.0
19/03:30pm 34.5 29.1 13.9 29 12.6 S 35 48 19 26 1016.1 1015.9 0.0
19/03:13pm 35.4 30.6 14.1 28 13.1 S 32 57 17 31 1016.2 1016.0 0.0
19/03:00pm 33.3 28.5 13.9 31 11.8 SSW 32 46 17 25 1016.4 1016.2 0.0
19/02:35pm 34.6 28.3 14.5 30 12.4 SSW 41 57 22 31 1016.4 1016.2 0.0
19/02:32pm 33.0 26.1 14.1 32 11.6 SSW 43 57 23 31 1016.4 1016.2 0.0
19/02:30pm 33.4 26.5 14.0 31 11.8 S 43 57 23 31 1016.3 1016.1 0.0
19/02:24pm 34.3 27.3 13.7 29 12.6 S 43 54 23 29 1016.4 1016.2 0.0
19/02:21pm 33.7 26.7 13.7 30 12.2 S 43 54 23 29 1016.3 1016.1 0.0
19/02:00pm 34.5 28.7 13.9 29 12.6 S 37 57 20 31 1016.3 1016.1 0.0
19/01:54pm 34.9 30.6 13.1 27 13.2 S 28 52 15 28 1016.4 1016.2 0.0
19/01:30pm 35.0 32.4 13.2 27 13.2 SE 19 32 10 17 1016.5 1016.3 0.0
19/01:00pm 34.3 32.1 13.2 28 12.8 SSE 17 28 9 15 1016.8 1016.6 0.0
19/12:30pm 34.9 32.4 14.2 28 12.7 SW 20 33 11 18 1017.0 1016.8 0.0
19/12:00pm 34.2 33.0 14.1 29 12.3 ESE 13 22 7 12 1017.1 1016.9 0.0
19/11:30am 34.0 31.8 14.5 31 12.0 SW 19 30 10 16 1017.3 1017.1 0.0
19/11:00am 32.9 33.0 14.5 33 11.3 N 7 15 4 8 1017.4 1017.2 0.0
19/10:30am 32.2 32.0 14.8 35 10.7 N 9 15 5 8 1017.7 1017.5 0.0
19/10:00am 31.2 29.9 14.8 37 10.1 N 15 26 8 14 1017.6 1017.4 0.0
19/09:30am 30.5 28.5 15.0 39 9.5 NNE 19 26 10 14 1017.4 1017.2 0.0
19/09:00am 29.7 28.1 15.0 40 9.0 NE 17 22 9 12 1017.2 1017.0 0.0
19/08:30am 27.7 27.7 14.3 43 8.0 SE 7 11 4 6 1017.3 1017.1 0.0
19/08:00am 26.4 25.7 14.2 47 7.3 E 11 15 6 8 1017.0 1016.8 0.0
19/07:30am 24.9 24.0 13.8 50 6.5 ESE 11 13 6 7 1016.6 1016.4 0.0
19/07:00am 23.5 22.1 13.4 53 5.9 NNE 13 17 7 9 1016.2 1016.0 0.0
19/06:30am 23.3 22.3 13.5 54 5.7 E 11 15 6 8 1015.7 1015.5 0.0
19/06:00am 24.1 22.7 13.3 51 6.3 E 13 15 7 8 1015.1 1014.9 0.0
19/05:30am 24.5 22.6 13.1 49 6.6 ENE 15 20 8 11 1014.5 1014.3 0.0
19/05:00am 24.5 21.7 13.1 49 6.6 ENE 20 26 11 14 1013.7 1013.5 0.0
19/04:30am 22.2 21.7 11.9 52 5.8 S 6 7 3 4 1014.0 1013.8 0.0
19/04:00am 24.7 22.7 12.6 47 7.0 E 15 19 8 10 1013.7 1013.5 0.0
19/03:30am 24.9 22.5 12.8 47 7.0 E 17 20 9 11 1013.7 1013.5 0.0
19/03:00am 22.8 21.6 11.5 49 6.3 ESE 9 11 5 6 1014.0 1013.8 0.0
19/02:30am 23.2 21.1 11.3 47 6.7 ESE 13 13 7 7 1014.2 1014.0 0.0
19/02:00am 24.0 22.3 11.3 45 7.1 ENE 11 13 6 7 1014.5 1014.3 0.0
19/01:30am 24.3 22.6 11.3 44 7.3 ENE 11 11 6 6 1014.8 1014.6 0.0
19/01:00am 23.8 22.3 10.5 43 7.4 E 9 11 5 6 1015.1 1014.9 0.0
19/12:30am 24.0 22.5 10.7 43 7.4 E 9 11 5 6 1015.3 1015.1 0.0
19/12:00am 24.7 22.9 10.9 42 7.7 E 11 11 6 6 1015.5 1015.3 0.0
 
Date/Time
CDT
Temp
°C
App
Temp
°C
Dew
Point
°C
Rel
Hum
%
Delta-T
°C
Wind Press
QNH
hPa
Press
MSL
hPa
Rain since
9am
mm
Dir  Spd
km/h
Gust
km/h
Spd
kts
Gust
kts
18/11:30pm 25.2 23.4 11.0 41 8.0 SE 11 11 6 6 1015.6 1015.4 0.0
18/11:00pm 26.7 25.0 11.2 38 8.8 ENE 11 13 6 7 1015.4 1015.2 0.0
18/10:30pm 27.3 25.2 11.3 37 9.1 E 13 15 7 8 1015.3 1015.1 0.0
18/10:00pm 27.9 26.3 11.5 36 9.4 E 11 13 6 7 1015.1 1014.9 0.0
18/09:30pm 28.7 27.0 11.3 34 10.0 E 11 13 6 7 1014.7 1014.5 0.0
18/09:00pm 29.5 27.4 11.1 32 10.6 ENE 13 17 7 9 1014.1 1013.9 0.0
18/08:30pm 30.7 28.6 11.1 30 11.3 ENE 13 17 7 9 1013.7 1013.5 0.0
18/08:00pm 31.5 29.7 10.8 28 12.0 NE 11 13 6 7 1013.3 1013.1 0.0
18/07:30pm 32.3 29.9 11.5 28 12.2 NE 15 20 8 11 1012.9 1012.7 0.0
18/07:00pm 32.9 30.5 11.4 27 12.6 NE 15 20 8 11 1012.5 1012.3 0.0
18/06:30pm 33.4 30.6 11.3 26 13.0 NE 17 28 9 15 1012.2 1012.0 0.0
18/06:00pm 33.1 30.6 11.0 26 12.9 NE 15 24 8 13 1012.0 1011.8 0.0
18/05:30pm 34.5 31.2 11.0 24 13.8 ENE 19 30 10 16 1011.8 1011.6 0.0
18/05:00pm 34.2 30.6 10.7 24 13.7 NNE 20 28 11 15 1011.7 1011.5 0.0
18/04:30pm 34.0 31.2 11.2 25 13.4 NE 17 32 9 17 1011.7 1011.5 0.0
18/04:00pm 34.6 31.5 10.4 23 14.1 ENE 17 46 9 25 1011.8 1011.6 0.0
18/03:30pm 33.7 31.5 10.9 25 13.3 NE 13 22 7 12 1012.1 1011.9 0.0
18/03:00pm 33.7 30.6 11.5 26 13.1 ENE 19 30 10 16 1012.5 1012.3 0.0
18/02:30pm 33.2 29.9 11.7 27 12.7 NE 20 46 11 25 1013.0 1012.8 0.0
18/02:00pm 32.3 29.7 12.0 29 12.0 NNE 17 30 9 16 1013.4 1013.2 0.0
18/01:30pm 32.7 29.8 12.9 30 11.9 NE 20 30 11 16 1013.7 1013.5 0.0
18/01:07pm 32.0 28.9 12.3 30 11.7 NE 20 41 11 22 1014.1 1013.9 0.0
18/01:00pm 31.2 28.2 12.5 31 11.1 NE 20 33 11 18 1014.2 1014.0 0.0
18/12:30pm 30.9 27.2 12.8 33 10.8 NE 24 35 13 19 1014.7 1014.5 0.0
18/12:00pm 30.7 26.6 12.6 33 10.7 NE 26 33 14 18 1015.1 1014.9 0.0
18/11:30am 29.5 25.6 13.3 37 9.6 NNE 26 33 14 18 1015.3 1015.1 0.0
18/11:00am 29.6 25.4 13.4 37 9.7 NE 28 37 15 20 1015.7 1015.5 0.0
18/10:30am 28.3 23.4 13.8 41 8.7 NE 32 39 17 21 1016.1 1015.9 0.0
18/10:00am 27.8 22.9 13.7 42 8.4 NE 32 39 17 21 1016.3 1016.1 0.0
18/09:30am 27.5 22.4 13.8 43 8.1 NE 33 41 18 22 1016.4 1016.2 0.0
18/09:00am 26.6 21.8 14.0 46 7.5 NE 32 43 17 23 1016.4 1016.2 -
18/08:30am 25.7 21.1 13.5 46 7.2 NE 30 43 16 23 1016.3 1016.1 -
18/08:00am 24.6 21.4 13.2 49 6.6 ENE 22 33 12 18 1016.2 1016.0 -
18/07:30am 22.8 21.3 11.8 50 6.2 ESE 11 13 6 7 1016.1 1015.9 -
18/07:00am 20.8 19.4 10.9 53 5.4 ESE 9 11 5 6 1015.8 1015.6 -
18/06:30am 21.5 19.8 11.2 52 5.7 ENE 11 15 6 8 1015.3 1015.1 -
18/06:00am 21.5 19.7 10.9 51 5.8 ENE 11 15 6 8 1014.9 1014.7 -
18/05:30am 21.5 19.6 10.6 50 6.0 ENE 11 15 6 8 1014.6 1014.4 -
18/05:00am 21.7 19.4 10.5 49 6.1 ENE 13 15 7 8 1014.3 1014.1 -
18/04:30am 22.0 19.7 10.5 48 6.3 ENE 13 15 7 8 1014.1 1013.9 -
18/04:00am 22.9 21.1 10.7 46 6.7 ENE 11 13 6 7 1014.0 1013.8 -
18/03:30am 23.8 21.2 10.8 44 7.2 ENE 15 17 8 9 1014.0 1013.8 -
18/03:00am 24.1 21.1 10.7 43 7.5 ENE 17 19 9 10 1013.9 1013.7 0.0
18/02:30am 24.6 21.6 10.8 42 7.7 ENE 17 20 9 11 1014.2 1014.0 -
18/02:00am 25.0 21.7 10.8 41 8.0 ENE 19 22 10 12 1014.4 1014.2 -
18/01:30am 23.8 20.8 10.5 43 7.4 E 17 20 9 11 1014.6 1014.4 -
18/01:00am 22.0 19.4 9.2 44 6.9 ESE 13 17 7 9 1014.8 1014.6 -
18/12:30am 23.0 20.4 9.4 42 7.4 ESE 13 15 7 8 1014.8 1014.6 -
18/12:00am 23.5 22.0 9.1 40 7.8 ESE 7 9 4 5 1014.9 1014.7 -
 
Date/Time
CDT
Temp
°C
App
Temp
°C
Dew
Point
°C
Rel
Hum
%
Delta-T
°C
Wind Press
QNH
hPa
Press
MSL
hPa
Rain since
9am
mm
Dir  Spd
km/h
Gust
km/h
Spd
kts
Gust
kts
17/11:30pm 24.3 24.2 9.5 39 8.1 CALM 0 0 0 0 1014.9 1014.7 -
17/11:00pm 24.3 23.4 9.1 38 8.2 ENE 4 9 2 5 1014.9 1014.7 -
17/10:30pm 25.7 24.4 9.9 37 8.7 ENE 7 7 4 4 1014.8 1014.6 -
17/10:00pm 27.0 25.3 9.8 34 9.6 NE 9 11 5 6 1014.6 1014.4 -
17/09:30pm 28.2 25.5 10.4 33 10.1 NE 15 17 8 9 1014.3 1014.1 -
17/09:00pm 29.0 26.0 10.6 32 10.5 NE 17 22 9 12 1013.9 1013.7 -
17/08:30pm 29.7 26.2 10.8 31 10.8 ENE 20 24 11 13 1013.6 1013.4 -
17/08:00pm 30.4 26.8 10.4 29 11.4 ENE 20 28 11 15 1013.3 1013.1 -
17/07:30pm 31.0 27.4 10.4 28 11.8 NE 20 26 11 14 1012.9 1012.7 -
17/07:00pm 31.5 27.0 10.2 27 12.2 NE 24 35 13 19 1012.6 1012.4 -
17/06:30pm 31.3 26.8 10.1 27 12.1 NE 24 32 13 17 1012.4 1012.2 -
17/06:00pm 32.7 27.6 10.7 26 12.8 ENE 28 37 15 20 1012.2 1012.0 -
17/05:30pm 32.5 28.0 9.9 25 12.9 ENE 24 39 13 21 1012.1 1011.9 -
17/05:00pm 32.4 27.4 11.0 27 12.4 ENE 28 41 15 22 1011.9 1011.7 -
17/04:35pm 32.6 27.5 10.6 26 12.7 ENE 28 46 15 25 1011.8 1011.6 -
17/04:30pm 32.5 27.4 10.5 26 12.7 ENE 28 41 15 22 1012.0 1011.8 -
17/03:30pm 32.1 27.1 10.8 27 12.3 NE 28 46 15 25 1012.4 1012.2 0.0
17/03:28pm 32.3 27.3 10.9 27 12.4 NE 28 46 15 25 1012.4 1012.2 0.0
17/03:00pm 31.7 26.3 11.0 28 12.0 NE 30 46 16 25 1012.7 1012.5 0.0
17/02:31pm 32.6 27.7 11.2 27 12.5 ENE 28 50 15 27 1013.0 1012.8 0.0
17/02:30pm 32.1 27.6 11.3 28 12.1 ENE 26 50 14 27 1013.0 1012.8 0.0
17/02:00pm 30.8 25.7 10.7 29 11.6 NE 28 44 15 24 1013.5 1013.3 0.0
17/01:30pm 31.2 26.2 11.1 29 11.6 NE 28 43 15 23 1014.0 1013.8 0.0
17/01:04pm 30.5 25.5 11.0 30 11.2 ENE 28 48 15 26 1014.4 1014.2 0.0
17/01:00pm 30.9 26.2 10.8 29 11.6 NE 26 41 14 22 1014.6 1014.4 0.0
17/12:30pm 29.2 24.8 11.7 34 10.1 NE 26 39 14 21 1015.1 1014.9 0.0

Other Formats:

Comma delimited format used in spreadsheet applications
http://www.bom.gov.au/fwo/IDS60801/IDS60801.95480.axf

JavaScript Object Notation format (JSON) in row-major order
http://www.bom.gov.au/fwo/IDS60801/IDS60801.95480.json